Time;durP1;ratioP1;P1;durP2;ratioP2;P2;SDS_P1;SDS_P2;PMS_P1;PMS_P2;Temp;Humidity;BMP_temperature;BMP_pressure;BME280_temperature;BME280_humidity;BME280_pressure;Samples;Min_cycle;Max_cycle;Signal;HPM_P1;HPM_P2
2023/12/25 00:02:02;;;;;;;4.13;2.30;;;;;;;;;;5130959;27;20040;-72
2023/12/25 00:04:29;;;;;;;5.80;2.22;;;;;;;;;;5130349;27;20051;-73
2023/12/25 00:06:56;;;;;;;5.30;2.55;;;;;;;;;;5130799;27;20043;-73
2023/12/25 00:09:23;;;;;;;3.50;2.10;;;;;;;;;;5129730;27;20047;-73
2023/12/25 00:11:49;;;;;;;5.07;2.15;;;;;;;;;;5130710;27;20047;-74
2023/12/25 00:14:16;;;;;;;3.50;2.10;;;;;;;;;;5130273;27;20051;-73
2023/12/25 00:16:43;;;;;;;3.15;1.88;;;;;;;;;;5130327;27;20422;-74
2023/12/25 00:19:10;;;;;;;2.97;1.77;;;;;;;;;;5130232;27;20108;-73
2023/12/25 00:21:37;;;;;;;3.78;1.85;;;;;;;;;;5130381;27;20045;-74
2023/12/25 00:24:05;;;;;;;2.63;1.90;;;;;;;;;;5129944;27;20055;-74
2023/12/25 00:26:31;;;;;;;3.50;1.85;;;;;;;;;;5130503;27;20103;-72
2023/12/25 00:28:58;;;;;;;3.50;2.03;;;;;;;;;;5129946;28;20150;-74
2023/12/25 00:31:24;;;;;;;2.85;1.70;;;;;;;;;;5130475;28;20179;-72
2023/12/25 00:33:51;;;;;;;3.92;2.08;;;;;;;;;;5130057;27;20391;-73
2023/12/25 00:36:18;;;;;;;2.90;1.90;;;;;;;;;;5130740;28;20040;-73
2023/12/25 00:38:45;;;;;;;2.50;1.65;;;;;;;;;;5129904;28;20053;-72
2023/12/25 00:41:11;;;;;;;3.20;1.85;;;;;;;;;;5130178;28;20055;-74
2023/12/25 00:43:38;;;;;;;2.35;1.80;;;;;;;;;;5133253;27;20138;-72
2023/12/25 00:46:06;;;;;;;2.35;1.63;;;;;;;;;;5130097;28;20043;-71
2023/12/25 00:48:32;;;;;;;2.80;1.70;;;;;;;;;;5129756;28;20048;-72
2023/12/25 00:51:00;;;;;;;2.47;1.50;;;;;;;;;;5130357;28;20140;-72
2023/12/25 00:53:26;;;;;;;2.55;1.58;;;;;;;;;;5130071;28;20043;-73
2023/12/25 00:55:53;;;;;;;2.20;1.20;;;;;;;;;;5130226;28;20096;-73
2023/12/25 00:58:20;;;;;;;2.15;1.33;;;;;;;;;;5129964;28;20503;-73
2023/12/25 01:00:47;;;;;;;3.10;1.95;;;;;;;;;;5129695;28;20057;-71
2023/12/25 01:03:16;;;;;;;2.78;1.73;;;;;;;;;;5130143;28;20039;-72
2023/12/25 01:05:43;;;;;;;3.63;1.90;;;;;;;;;;5129991;27;20096;-71
2023/12/25 01:08:09;;;;;;;3.72;1.75;;;;;;;;;;5133432;27;20483;-72
2023/12/25 01:10:36;;;;;;;3.38;1.60;;;;;;;;;;5133366;27;20126;-71
2023/12/25 01:13:05;;;;;;;3.22;1.70;;;;;;;;;;5134291;27;20213;-73
2023/12/25 01:15:31;;;;;;;2.42;1.50;;;;;;;;;;5133742;27;20043;-72
2023/12/25 01:17:58;;;;;;;1.98;1.25;;;;;;;;;;5133624;27;20047;-73
2023/12/25 01:20:25;;;;;;;1.63;1.10;;;;;;;;;;5133213;27;20058;-72
2023/12/25 01:22:52;;;;;;;2.17;1.25;;;;;;;;;;5133553;27;20515;-73
2023/12/25 01:25:19;;;;;;;2.35;1.38;;;;;;;;;;5133121;27;20048;-73
2023/12/25 01:27:46;;;;;;;2.08;1.17;;;;;;;;;;5133627;27;20043;-74
2023/12/25 01:30:13;;;;;;;2.25;1.30;;;;;;;;;;5133561;27;20047;-73
2023/12/25 01:32:40;;;;;;;2.70;1.50;;;;;;;;;;5133572;27;20483;-72
2023/12/25 01:35:07;;;;;;;2.00;1.20;;;;;;;;;;5135183;27;20051;-72
2023/12/25 01:37:34;;;;;;;3.08;1.42;;;;;;;;;;5133620;27;20082;-74
2023/12/25 01:40:02;;;;;;;2.25;1.42;;;;;;;;;;5133017;27;20061;-73
2023/12/25 01:42:28;;;;;;;1.95;1.35;;;;;;;;;;5133536;27;20054;-73
2023/12/25 01:44:55;;;;;;;2.70;1.40;;;;;;;;;;5133222;27;20054;-73
2023/12/25 01:47:22;;;;;;;1.90;1.27;;;;;;;;;;5133282;27;20495;-73
2023/12/25 01:49:49;;;;;;;2.15;1.25;;;;;;;;;;5133116;27;20059;-73
2023/12/25 01:52:17;;;;;;;2.08;1.20;;;;;;;;;;5133209;27;20483;-73
2023/12/25 01:54:44;;;;;;;1.67;1.10;;;;;;;;;;5132801;27;20058;-73
2023/12/25 01:57:11;;;;;;;1.58;1.17;;;;;;;;;;5133190;27;20047;-74
2023/12/25 01:59:39;;;;;;;1.73;1.00;;;;;;;;;;5132533;27;20128;-73
2023/12/25 02:02:06;;;;;;;1.60;1.00;;;;;;;;;;5133049;27;20551;-72
2023/12/25 02:04:33;;;;;;;2.38;1.42;;;;;;;;;;5132957;27;20403;-73
2023/12/25 02:07:00;;;;;;;2.47;1.45;;;;;;;;;;5133230;27;20047;-73
2023/12/25 02:09:27;;;;;;;1.60;1.13;;;;;;;;;;5132650;27;20577;-73
2023/12/25 02:11:54;;;;;;;1.70;1.15;;;;;;;;;;5132437;27;20039;-72
2023/12/25 02:14:21;;;;;;;1.83;1.23;;;;;;;;;;5132497;27;20613;-72
2023/12/25 02:16:49;;;;;;;1.90;1.20;;;;;;;;;;5132702;27;20131;-73
2023/12/25 02:19:29;;;;;;;2.05;1.20;;;;;;;;;;5132422;27;20043;-72
2023/12/25 02:21:57;;;;;;;2.70;1.58;;;;;;;;;;5132406;27;20081;-72
2023/12/25 02:24:29;;;;;;;3.30;1.70;;;;;;;;;;5132439;27;20047;-73
2023/12/25 02:26:56;;;;;;;2.30;1.20;;;;;;;;;;5132577;27;20066;-72
2023/12/25 02:29:22;;;;;;;2.47;1.35;;;;;;;;;;5132523;27;20057;-74
2023/12/25 02:31:50;;;;;;;2.10;1.40;;;;;;;;;;5131877;27;20482;-73
2023/12/25 02:34:16;;;;;;;2.20;1.50;;;;;;;;;;5132471;27;20039;-74
2023/12/25 02:36:43;;;;;;;2.28;1.35;;;;;;;;;;5132062;27;20049;-73
2023/12/25 02:39:10;;;;;;;1.70;1.10;;;;;;;;;;5132373;27;20047;-74
2023/12/25 02:41:37;;;;;;;1.65;1.15;;;;;;;;;;5131770;27;20043;-74
2023/12/25 02:44:04;;;;;;;2.00;1.30;;;;;;;;;;5132476;27;20066;-72
2023/12/25 02:46:31;;;;;;;1.77;1.15;;;;;;;;;;5131750;27;20510;-72
2023/12/25 02:48:57;;;;;;;1.30;1.00;;;;;;;;;;5131971;27;20055;-74
2023/12/25 02:51:24;;;;;;;3.17;1.52;;;;;;;;;;5131809;27;20054;-71
2023/12/25 02:53:51;;;;;;;1.92;1.20;;;;;;;;;;5132086;27;20074;-73
2023/12/25 02:56:18;;;;;;;2.75;1.60;;;;;;;;;;5132045;27;20055;-73
2023/12/25 02:58:45;;;;;;;2.00;1.30;;;;;;;;;;5132081;27;20047;-73
2023/12/25 03:01:12;;;;;;;1.45;1.10;;;;;;;;;;5131469;27;20051;-74
2023/12/25 03:03:39;;;;;;;2.13;1.30;;;;;;;;;;5131771;27;20049;-74
2023/12/25 03:06:05;;;;;;;1.75;1.20;;;;;;;;;;5131304;27;20054;-74
2023/12/25 03:08:32;;;;;;;1.30;0.90;;;;;;;;;;5131456;27;20047;-73
2023/12/25 03:11:00;;;;;;;1.60;1.13;;;;;;;;;;5131298;27;20054;-73
2023/12/25 03:13:27;;;;;;;1.83;1.20;;;;;;;;;;5131623;27;20047;-73
2023/12/25 03:15:53;;;;;;;1.80;1.23;;;;;;;;;;5131731;27;20048;-72
2023/12/25 03:18:22;;;;;;;1.88;1.30;;;;;;;;;;5131661;27;20172;-73
2023/12/25 03:20:49;;;;;;;1.55;1.08;;;;;;;;;;5131852;27;20055;-74
2023/12/25 03:23:16;;;;;;;1.77;1.25;;;;;;;;;;5131263;27;20046;-74
2023/12/25 03:25:42;;;;;;;2.35;1.42;;;;;;;;;;5131153;27;20121;-72
2023/12/25 03:28:09;;;;;;;1.98;1.17;;;;;;;;;;5131480;27;20051;-72
2023/12/25 03:30:36;;;;;;;2.33;1.27;;;;;;;;;;5130247;27;20061;-72
2023/12/25 03:33:03;;;;;;;2.83;1.50;;;;;;;;;;5131500;27;20043;-72
2023/12/25 03:35:29;;;;;;;2.85;1.10;;;;;;;;;;5131031;27;20047;-71
2023/12/25 03:37:56;;;;;;;3.58;2.00;;;;;;;;;;5131012;27;20134;-72
2023/12/25 03:40:23;;;;;;;2.30;1.70;;;;;;;;;;5131141;27;20112;-73
2023/12/25 03:42:49;;;;;;;2.00;1.20;;;;;;;;;;5112596;27;20050;-71
2023/12/25 03:45:16;;;;;;;2.70;1.60;;;;;;;;;;5131203;27;20127;-72
2023/12/25 03:47:43;;;;;;;2.67;1.60;;;;;;;;;;5130588;27;20039;-72
2023/12/25 03:50:10;;;;;;;2.90;1.90;;;;;;;;;;5130892;27;20043;-72
2023/12/25 03:52:36;;;;;;;2.00;1.45;;;;;;;;;;5130527;27;20047;-73
2023/12/25 03:55:03;;;;;;;5.68;1.70;;;;;;;;;;5132162;27;20047;-72
2023/12/25 03:57:30;;;;;;;2.42;1.65;;;;;;;;;;5130482;27;20043;-72
2023/12/25 03:59:57;;;;;;;1.90;1.40;;;;;;;;;;5130566;27;20658;-72
2023/12/25 04:02:24;;;;;;;2.50;1.67;;;;;;;;;;5130274;27;20050;-74
2023/12/25 04:04:50;;;;;;;3.15;1.65;;;;;;;;;;5130558;27;20086;-74
2023/12/25 04:07:17;;;;;;;3.10;2.13;;;;;;;;;;5130427;27;20422;-72
2023/12/25 04:09:44;;;;;;;2.50;1.58;;;;;;;;;;5130655;27;20051;-74
2023/12/25 04:12:10;;;;;;;2.50;1.50;;;;;;;;;;5130584;27;20126;-74
2023/12/25 04:14:39;;;;;;;2.85;1.73;;;;;;;;;;5130810;27;20061;-72
2023/12/25 04:17:06;;;;;;;2.58;1.75;;;;;;;;;;5130363;27;20123;-74
2023/12/25 04:19:33;;;;;;;2.70;1.83;;;;;;;;;;5130402;27;20081;-73
2023/12/25 04:21:59;;;;;;;2.28;1.67;;;;;;;;;;5130264;27;20126;-72
2023/12/25 04:24:26;;;;;;;3.03;2.05;;;;;;;;;;5130161;27;20058;-72
2023/12/25 04:26:53;;;;;;;2.83;2.00;;;;;;;;;;5130544;27;20043;-71
2023/12/25 04:29:19;;;;;;;2.42;1.70;;;;;;;;;;5130718;28;20046;-71
2023/12/25 04:31:46;;;;;;;2.60;1.77;;;;;;;;;;5130138;28;20100;-73
2023/12/25 04:34:16;;;;;;;1.83;1.40;;;;;;;;;;5130528;28;20047;-73
2023/12/25 04:36:43;;;;;;;1.75;1.30;;;;;;;;;;5129839;28;20051;-72
2023/12/25 04:39:11;;;;;;;2.58;1.58;;;;;;;;;;5130393;28;20122;-72
2023/12/25 04:41:37;;;;;;;2.45;1.75;;;;;;;;;;5132456;27;20090;-73
2023/12/25 04:44:04;;;;;;;2.15;1.27;;;;;;;;;;5134562;27;20558;-72
2023/12/25 04:46:31;;;;;;;2.38;1.65;;;;;;;;;;5134454;27;20039;-72
2023/12/25 04:48:57;;;;;;;2.22;1.48;;;;;;;;;;5134280;27;20452;-71
2023/12/25 04:51:24;;;;;;;2.13;1.45;;;;;;;;;;5134020;27;20047;-72
2023/12/25 04:53:51;;;;;;;2.67;1.58;;;;;;;;;;5133907;27;20043;-72
2023/12/25 04:56:18;;;;;;;2.33;1.35;;;;;;;;;;5134031;27;20088;-72
2023/12/25 04:58:44;;;;;;;3.05;1.67;;;;;;;;;;5134029;27;20415;-75
2023/12/25 05:01:11;;;;;;;3.63;2.08;;;;;;;;;;5134020;27;20043;-72
2023/12/25 05:03:38;;;;;;;2.20;1.50;;;;;;;;;;5134358;27;20118;-73
2023/12/25 05:06:04;;;;;;;3.15;2.33;;;;;;;;;;5134368;27;20046;-72
2023/12/25 05:08:31;;;;;;;2.70;1.77;;;;;;;;;;5133817;27;20122;-73
2023/12/25 05:10:58;;;;;;;2.40;1.65;;;;;;;;;;5133696;27;20043;-74
2023/12/25 05:13:25;;;;;;;2.72;1.70;;;;;;;;;;5133700;27;20062;-73
2023/12/25 05:15:52;;;;;;;3.88;2.17;;;;;;;;;;5134142;27;20058;-72
2023/12/25 05:18:19;;;;;;;3.00;2.00;;;;;;;;;;5133811;27;20039;-72
2023/12/25 05:20:45;;;;;;;3.60;2.22;;;;;;;;;;5133871;27;20039;-74
2023/12/25 05:23:12;;;;;;;3.90;2.00;;;;;;;;;;5133497;27;20047;-74
2023/12/25 05:25:39;;;;;;;2.80;1.83;;;;;;;;;;5133834;27;20051;-72
2023/12/25 05:28:06;;;;;;;2.65;1.70;;;;;;;;;;5133596;27;20047;-72
2023/12/25 05:30:33;;;;;;;2.75;1.85;;;;;;;;;;5133454;27;20084;-72
2023/12/25 05:33:00;;;;;;;2.78;1.60;;;;;;;;;;5133312;27;20088;-73
2023/12/25 05:35:26;;;;;;;3.60;1.73;;;;;;;;;;5133535;27;20047;-72
2023/12/25 05:37:53;;;;;;;2.67;1.48;;;;;;;;;;5133597;27;20047;-72
2023/12/25 05:40:20;;;;;;;3.65;1.75;;;;;;;;;;5133262;27;20511;-72
2023/12/25 05:42:47;;;;;;;2.10;1.40;;;;;;;;;;5132776;27;20422;-74
2023/12/25 05:45:14;;;;;;;2.70;1.90;;;;;;;;;;5133420;27;20047;-72
2023/12/25 05:47:40;;;;;;;2.42;1.73;;;;;;;;;;5133092;27;20054;-74
2023/12/25 05:50:08;;;;;;;2.28;1.55;;;;;;;;;;5133144;27;20047;-73
2023/12/25 05:52:35;;;;;;;2.90;1.73;;;;;;;;;;5131906;27;20611;-73
2023/12/25 05:55:02;;;;;;;2.55;1.80;;;;;;;;;;5132958;27;20054;-71
2023/12/25 05:57:28;;;;;;;4.18;2.00;;;;;;;;;;5133070;27;20111;-73
2023/12/25 05:59:55;;;;;;;2.65;1.95;;;;;;;;;;5133008;27;20051;-73
2023/12/25 06:02:22;;;;;;;2.72;1.92;;;;;;;;;;5132507;27;20047;-72
2023/12/25 06:04:48;;;;;;;2.70;1.83;;;;;;;;;;5132653;27;20047;-74
2023/12/25 06:07:15;;;;;;;3.10;2.08;;;;;;;;;;5132652;27;20055;-73
2023/12/25 06:09:42;;;;;;;3.25;1.98;;;;;;;;;;5132409;27;20511;-72
2023/12/25 06:12:08;;;;;;;3.28;2.13;;;;;;;;;;5134447;27;20058;-72
2023/12/25 06:14:36;;;;;;;2.80;1.92;;;;;;;;;;5132867;27;20126;-72
2023/12/25 06:17:04;;;;;;;2.67;1.52;;;;;;;;;;5132736;27;20047;-74
2023/12/25 06:19:30;;;;;;;5.30;2.00;;;;;;;;;;5132419;27;20050;-74
2023/12/25 06:21:57;;;;;;;3.33;2.03;;;;;;;;;;5134723;27;20061;-72
2023/12/25 06:24:24;;;;;;;4.75;1.92;;;;;;;;;;5131798;27;20469;-71
2023/12/25 06:26:51;;;;;;;2.67;1.60;;;;;;;;;;5132390;27;20490;-71
2023/12/25 06:29:17;;;;;;;2.47;1.75;;;;;;;;;;5132118;27;20053;-72
2023/12/25 06:31:46;;;;;;;3.80;2.10;;;;;;;;;;5132314;27;20047;-72
2023/12/25 06:34:13;;;;;;;4.55;2.20;;;;;;;;;;5131919;27;20050;-71
2023/12/25 06:36:39;;;;;;;2.50;1.73;;;;;;;;;;5114011;27;20043;-72
2023/12/25 06:39:06;;;;;;;2.33;1.75;;;;;;;;;;5131927;27;20066;-74
2023/12/25 06:41:33;;;;;;;2.95;2.00;;;;;;;;;;5132463;27;20494;-72
2023/12/25 06:43:59;;;;;;;2.80;1.88;;;;;;;;;;5132074;27;20053;-74
2023/12/25 06:46:26;;;;;;;2.70;1.70;;;;;;;;;;5132211;27;20047;-74
2023/12/25 06:48:55;;;;;;;2.90;1.90;;;;;;;;;;5131803;27;20531;-72
2023/12/25 06:51:22;;;;;;;4.45;1.88;;;;;;;;;;5132078;27;20058;-72
2023/12/25 06:53:50;;;;;;;3.17;1.80;;;;;;;;;;5131515;27;20100;-74
2023/12/25 06:56:16;;;;;;;2.97;2.10;;;;;;;;;;5131727;27;20050;-71
2023/12/25 06:58:43;;;;;;;3.70;2.47;;;;;;;;;;5131497;27;20043;-71
2023/12/25 07:01:10;;;;;;;3.13;2.15;;;;;;;;;;5131941;27;20054;-73
2023/12/25 07:03:36;;;;;;;2.53;1.90;;;;;;;;;;5130578;27;20163;-72
2023/12/25 07:06:08;;;;;;;2.70;1.75;;;;;;;;;;5131163;27;20054;-72
2023/12/25 07:08:36;;;;;;;2.47;1.52;;;;;;;;;;5131582;27;20072;-72
2023/12/25 07:11:04;;;;;;;2.97;2.13;;;;;;;;;;5131322;27;20053;-74
2023/12/25 07:13:36;;;;;;;3.13;2.15;;;;;;;;;;5130831;27;20487;-71
2023/12/25 07:16:04;;;;;;;3.55;2.25;;;;;;;;;;5131408;27;20183;-74
2023/12/25 07:18:30;;;;;;;3.10;2.25;;;;;;;;;;5131003;27;20144;-71
2023/12/25 07:20:57;;;;;;;2.78;2.13;;;;;;;;;;5131385;27;20043;-71
2023/12/25 07:23:24;;;;;;;4.13;2.55;;;;;;;;;;5131047;27;20051;-73
2023/12/25 07:25:51;;;;;;;3.15;2.33;;;;;;;;;;5131100;27;20047;-74
2023/12/25 07:28:18;;;;;;;3.55;2.38;;;;;;;;;;5130855;27;20043;-73
2023/12/25 07:30:45;;;;;;;3.53;2.17;;;;;;;;;;5131015;27;20062;-73
2023/12/25 07:33:12;;;;;;;2.83;1.83;;;;;;;;;;5130491;27;20043;-74
2023/12/25 07:35:39;;;;;;;4.05;2.40;;;;;;;;;;5130967;27;20039;-74
2023/12/25 07:38:06;;;;;;;4.38;2.13;;;;;;;;;;5131028;27;20051;-72
2023/12/25 07:40:32;;;;;;;2.90;1.95;;;;;;;;;;5130625;27;20046;-73
2023/12/25 07:42:59;;;;;;;3.30;2.22;;;;;;;;;;5130661;27;20074;-71
2023/12/25 07:45:26;;;;;;;4.40;1.83;;;;;;;;;;5130657;27;20050;-73
2023/12/25 07:47:52;;;;;;;3.38;2.10;;;;;;;;;;5130849;27;20126;-74
2023/12/25 07:50:20;;;;;;;2.30;1.60;;;;;;;;;;5130582;27;20047;-73
2023/12/25 07:52:47;;;;;;;2.95;2.05;;;;;;;;;;5130588;27;20047;-73
2023/12/25 07:55:14;;;;;;;3.28;2.10;;;;;;;;;;5130602;27;20088;-74
2023/12/25 07:57:41;;;;;;;3.58;2.10;;;;;;;;;;5130654;27;20425;-73
2023/12/25 08:00:08;;;;;;;3.88;2.40;;;;;;;;;;5130329;27;20062;-72
2023/12/25 08:02:35;;;;;;;3.55;2.40;;;;;;;;;;5130589;27;20050;-73
2023/12/25 08:05:02;;;;;;;3.75;2.53;;;;;;;;;;5130889;27;20055;-73
2023/12/25 08:07:29;;;;;;;3.13;2.15;;;;;;;;;;5130522;27;20043;-73
2023/12/25 08:09:56;;;;;;;3.65;2.35;;;;;;;;;;5130973;27;20062;-72
2023/12/25 08:12:23;;;;;;;4.13;2.78;;;;;;;;;;5130376;27;20035;-71
2023/12/25 08:14:49;;;;;;;4.20;2.90;;;;;;;;;;5130877;27;20039;-74
2023/12/25 08:17:17;;;;;;;4.70;3.08;;;;;;;;;;5130369;27;20043;-73
2023/12/25 08:19:44;;;;;;;3.17;2.38;;;;;;;;;;5131733;27;20410;-74
2023/12/25 08:22:11;;;;;;;3.67;2.35;;;;;;;;;;5130273;27;20047;-73
2023/12/25 08:24:37;;;;;;;3.20;2.40;;;;;;;;;;5129476;27;20123;-73
2023/12/25 08:27:04;;;;;;;3.97;2.55;;;;;;;;;;5130077;27;20100;-73
2023/12/25 08:29:31;;;;;;;3.22;2.50;;;;;;;;;;5130101;27;20047;-72
2023/12/25 08:31:57;;;;;;;3.75;2.58;;;;;;;;;;5130339;28;20054;-72
2023/12/25 08:34:24;;;;;;;4.15;2.90;;;;;;;;;;5133222;28;20043;-73
2023/12/25 08:36:51;;;;;;;3.60;2.40;;;;;;;;;;5130010;28;20499;-74
2023/12/25 08:39:17;;;;;;;3.30;2.42;;;;;;;;;;5129668;28;20050;-74
2023/12/25 08:41:44;;;;;;;4.55;2.72;;;;;;;;;;5129820;28;20072;-72
2023/12/25 08:44:11;;;;;;;3.92;2.60;;;;;;;;;;5129525;28;20566;-73
2023/12/25 08:46:38;;;;;;;3.72;2.63;;;;;;;;;;5130171;28;20054;-72
2023/12/25 08:49:05;;;;;;;3.90;2.67;;;;;;;;;;5129982;28;20044;-72
2023/12/25 08:51:37;;;;;;;5.20;3.25;;;;;;;;;;5129967;28;20051;-72
2023/12/25 08:54:04;;;;;;;5.95;3.35;;;;;;;;;;5129640;28;20051;-72
2023/12/25 08:56:31;;;;;;;4.50;2.95;;;;;;;;;;5129811;28;20396;-72
2023/12/25 08:58:59;;;;;;;4.13;2.97;;;;;;;;;;5129810;28;20047;-72
2023/12/25 09:01:29;;;;;;;4.38;2.70;;;;;;;;;;5129660;28;20053;-71
2023/12/25 09:03:55;;;;;;;5.07;2.90;;;;;;;;;;5129631;28;20047;-72
2023/12/25 09:06:22;;;;;;;4.60;3.17;;;;;;;;;;5129665;28;20047;-72
2023/12/25 09:08:50;;;;;;;4.45;2.88;;;;;;;;;;5129610;28;20054;-75
2023/12/25 09:11:17;;;;;;;4.60;2.20;;;;;;;;;;5129880;28;20143;-72
2023/12/25 09:13:44;;;;;;;3.65;2.67;;;;;;;;;;5129656;28;20472;-74
2023/12/25 09:16:11;;;;;;;4.22;2.42;;;;;;;;;;5129713;28;20046;-74
2023/12/25 09:18:38;;;;;;;3.45;2.58;;;;;;;;;;5129947;28;20058;-76
2023/12/25 09:21:05;;;;;;;3.90;2.42;;;;;;;;;;5123360;28;20039;-73
2023/12/25 09:23:32;;;;;;;3.75;2.67;;;;;;;;;;5101728;28;20043;-76
2023/12/25 09:26:02;;;;;;;3.58;2.60;;;;;;;;;;5115656;28;20047;-76
2023/12/25 09:28:28;;;;;;;4.13;2.58;;;;;;;;;;5111415;28;20134;-77
2023/12/25 09:30:55;;;;;;;4.50;2.72;;;;;;;;;;5131415;27;20051;-74
2023/12/25 09:33:22;;;;;;;4.25;2.90;;;;;;;;;;5133172;27;20503;-76
2023/12/25 09:35:49;;;;;;;4.35;3.10;;;;;;;;;;5132957;27;20139;-77
2023/12/25 09:38:15;;;;;;;5.28;2.97;;;;;;;;;;5123986;27;20042;-77
2023/12/25 09:40:42;;;;;;;3.63;2.55;;;;;;;;;;5112285;28;20059;-77
2023/12/25 09:43:09;;;;;;;5.80;3.30;;;;;;;;;;5112842;28;20071;-76
2023/12/25 09:45:37;;;;;;;3.63;2.50;;;;;;;;;;5111839;28;20588;-76
2023/12/25 09:48:06;;;;;;;8.07;3.00;;;;;;;;;;5120889;27;20495;-77
2023/12/25 09:50:36;;;;;;;3.75;2.70;;;;;;;;;;5125109;27;20047;-72
2023/12/25 09:53:03;;;;;;;4.40;2.58;;;;;;;;;;5112375;28;20621;-75
2023/12/25 09:55:30;;;;;;;4.82;2.63;;;;;;;;;;5111610;27;20054;-72
2023/12/25 09:58:00;;;;;;;4.85;2.83;;;;;;;;;;5112580;28;20044;-76
2023/12/25 10:00:27;;;;;;;4.43;2.67;;;;;;;;;;5112118;28;20051;-76
2023/12/25 10:02:55;;;;;;;4.38;3.08;;;;;;;;;;5115970;27;20039;-76
2023/12/25 10:05:22;;;;;;;4.80;2.70;;;;;;;;;;5132679;27;20049;-76
2023/12/25 10:07:49;;;;;;;3.78;2.58;;;;;;;;;;5132870;27;20047;-77
2023/12/25 10:10:16;;;;;;;4.57;2.83;;;;;;;;;;5132233;27;20053;-70
2023/12/25 10:12:44;;;;;;;4.65;3.03;;;;;;;;;;5132862;27;20043;-76
2023/12/25 10:15:14;;;;;;;4.72;2.92;;;;;;;;;;5132224;27;20506;-74
2023/12/25 10:17:41;;;;;;;5.05;3.13;;;;;;;;;;5132616;27;20046;-70
2023/12/25 10:20:08;;;;;;;4.90;3.05;;;;;;;;;;5132504;27;20039;-73
2023/12/25 10:22:38;;;;;;;4.60;3.05;;;;;;;;;;5115193;27;20044;-70
2023/12/25 10:25:11;;;;;;;4.82;2.78;;;;;;;;;;5111408;28;20130;-72
2023/12/25 10:27:43;;;;;;;5.88;3.40;;;;;;;;;;5112213;28;20052;-75
2023/12/25 10:30:17;;;;;;;4.38;2.95;;;;;;;;;;5117997;27;20039;-77
2023/12/25 10:32:45;;;;;;;5.13;3.22;;;;;;;;;;5116130;27;20462;-77
2023/12/25 10:35:18;;;;;;;5.53;3.20;;;;;;;;;;5130203;27;20069;-77
2023/12/25 10:37:45;;;;;;;5.10;3.35;;;;;;;;;;5126620;27;20116;-76
2023/12/25 10:40:22;;;;;;;6.28;3.55;;;;;;;;;;5129217;27;20047;-78
2023/12/25 10:42:52;;;;;;;4.32;2.88;;;;;;;;;;5130855;27;20043;-79
2023/12/25 10:45:24;;;;;;;5.30;3.22;;;;;;;;;;5130690;27;20050;-76
2023/12/25 10:47:52;;;;;;;4.78;3.50;;;;;;;;;;5113814;27;20039;-72
2023/12/25 10:50:22;;;;;;;5.95;4.15;;;;;;;;;;5108572;28;20499;-78
2023/12/25 10:52:53;;;;;;;7.75;4.75;;;;;;;;;;5110413;28;20048;-77
2023/12/25 10:55:40;;;;;;;7.60;5.05;;;;;;;;;;5109580;28;20055;-77
2023/12/25 10:58:08;;;;;;;6.75;4.13;;;;;;;;;;5108216;28;20044;-76
2023/12/25 11:00:39;;;;;;;5.65;3.92;;;;;;;;;;5109049;28;20051;-76
2023/12/25 11:03:12;;;;;;;5.40;3.88;;;;;;;;;;5116048;27;20383;-74
2023/12/25 11:05:40;;;;;;;5.00;3.38;;;;;;;;;;5123283;27;20043;-77
2023/12/25 11:08:07;;;;;;;7.18;4.18;;;;;;;;;;5118254;27;20104;-76
2023/12/25 11:10:35;;;;;;;5.90;4.15;;;;;;;;;;5121018;27;20691;-75
2023/12/25 11:13:04;;;;;;;7.30;3.35;;;;;;;;;;5130045;27;20130;-75
2023/12/25 11:15:31;;;;;;;8.27;4.53;;;;;;;;;;5120059;27;20335;-75
2023/12/25 11:17:59;;;;;;;6.03;4.20;;;;;;;;;;5120228;28;20046;-73
2023/12/25 11:20:26;;;;;;;6.78;4.47;;;;;;;;;;5114290;28;20093;-75
2023/12/25 11:22:56;;;;;;;5.88;3.85;;;;;;;;;;5127441;27;20114;-77
2023/12/25 11:25:24;;;;;;;5.68;3.70;;;;;;;;;;5125055;27;20123;-72
2023/12/25 11:27:52;;;;;;;5.25;3.60;;;;;;;;;;5141061;27;20043;-76
2023/12/25 11:30:22;;;;;;;5.38;3.95;;;;;;;;;;5131471;27;20039;-76
2023/12/25 11:32:51;;;;;;;6.20;3.72;;;;;;;;;;5121110;28;20047;-77
2023/12/25 11:35:28;;;;;;;6.03;4.07;;;;;;;;;;5118982;28;20291;-73
2023/12/25 11:38:21;;;;;;;7.43;3.88;;;;;;;;;;5123407;27;20044;-77
2023/12/25 11:40:51;;;;;;;7.10;3.50;;;;;;;;;;5140885;27;20315;-74
2023/12/25 11:43:19;;;;;;;6.45;4.25;;;;;;;;;;5139862;27;20224;-77
2023/12/25 11:45:47;;;;;;;5.68;3.90;;;;;;;;;;5137723;27;20043;-80
2023/12/25 11:48:14;;;;;;;5.05;3.53;;;;;;;;;;5132226;27;20047;-75
2023/12/25 11:50:42;;;;;;;5.35;3.80;;;;;;;;;;5135697;27;20521;-76
2023/12/25 11:53:09;;;;;;;4.78;3.47;;;;;;;;;;5128919;27;20043;-79
2023/12/25 11:55:38;;;;;;;5.20;3.53;;;;;;;;;;5130261;27;20062;-77
2023/12/25 11:58:05;;;;;;;9.35;5.60;;;;;;;;;;5135503;27;20050;-80
2023/12/25 12:00:32;;;;;;;12.48;6.82;;;;;;;;;;5131866;27;20349;-77
2023/12/25 12:03:00;;;;;;;6.40;4.60;;;;;;;;;;5141019;27;20043;-78
2023/12/25 12:05:31;;;;;;;6.70;5.40;;;;;;;;;;5141453;27;20114;-75
2023/12/25 12:07:57;;;;;;;5.82;3.85;;;;;;;;;;5123929;27;20058;-79
2023/12/25 12:10:24;;;;;;;4.47;3.38;;;;;;;;;;5121234;27;20047;-79
2023/12/25 12:12:51;;;;;;;4.70;3.40;;;;;;;;;;5140214;27;20083;-79
2023/12/25 12:15:17;;;;;;;5.22;3.15;;;;;;;;;;5129159;27;20059;-74
2023/12/25 12:17:44;;;;;;;4.45;3.00;;;;;;;;;;5121304;27;20043;-77
2023/12/25 12:20:13;;;;;;;4.55;2.90;;;;;;;;;;5129466;27;20040;-76
2023/12/25 12:22:40;;;;;;;4.63;2.90;;;;;;;;;;5130554;27;20150;-72
2023/12/25 12:25:12;;;;;;;4.15;3.15;;;;;;;;;;5115475;28;20057;-71
2023/12/25 12:27:39;;;;;;;3.50;2.80;;;;;;;;;;5096233;28;20054;-74
2023/12/25 12:30:09;;;;;;;5.32;3.10;;;;;;;;;;5115020;28;20035;-75
2023/12/25 12:32:37;;;;;;;;;;;;;;;;;;5127681;28;20524;-77
2023/12/25 12:35:05;;;;;;;4.95;3.40;;;;;;;;;;5120900;28;19924;-74
2023/12/25 12:37:32;;;;;;;4.22;2.58;;;;;;;;;;5109190;28;20073;-79
2023/12/25 12:40:06;;;;;;;3.08;2.42;;;;;;;;;;5129102;28;20411;-70
2023/12/25 12:42:38;;;;;;;4.13;2.90;;;;;;;;;;5128491;28;20123;-68
2023/12/25 12:45:06;;;;;;;5.20;3.00;;;;;;;;;;5130826;28;20039;-70
2023/12/25 12:47:33;;;;;;;3.42;2.70;;;;;;;;;;5126870;28;20525;-75
2023/12/25 12:50:01;;;;;;;4.25;2.80;;;;;;;;;;5112232;28;20055;-74
2023/12/25 12:52:28;;;;;;;4.43;2.92;;;;;;;;;;5128914;28;20476;-74
2023/12/25 12:54:55;;;;;;;4.88;2.58;;;;;;;;;;5124802;28;20035;-71
2023/12/25 12:57:24;;;;;;;8.45;3.10;;;;;;;;;;5118041;28;20355;-76
2023/12/25 12:59:51;;;;;;;4.40;3.07;;;;;;;;;;5111385;28;20659;-77
2023/12/25 13:02:19;;;;;;;4.35;3.03;;;;;;;;;;5110278;28;20074;-72
2023/12/25 13:04:45;;;;;;;4.32;3.25;;;;;;;;;;5128390;27;20043;-72
2023/12/25 13:07:13;;;;;;;4.57;3.22;;;;;;;;;;5132756;27;20082;-72
2023/12/25 13:09:40;;;;;;;5.45;3.42;;;;;;;;;;5139647;27;20376;-74
2023/12/25 13:12:07;;;;;;;3.88;2.75;;;;;;;;;;5142923;27;20051;-75
2023/12/25 13:14:34;;;;;;;5.65;3.97;;;;;;;;;;5142947;27;20092;-75
2023/12/25 13:17:01;;;;;;;5.28;3.65;;;;;;;;;;5140880;27;20051;-75
2023/12/25 13:19:27;;;;;;;5.75;3.95;;;;;;;;;;5141500;27;20067;-71
2023/12/25 13:21:54;;;;;;;7.38;5.68;;;;;;;;;;5129213;27;20046;-72
2023/12/25 13:24:21;;;;;;;5.97;4.53;;;;;;;;;;5139841;27;20054;-72
2023/12/25 13:26:48;;;;;;;5.90;3.42;;;;;;;;;;5122397;28;20050;-71
2023/12/25 13:29:15;;;;;;;4.68;3.00;;;;;;;;;;5120507;27;20126;-72
2023/12/25 13:31:42;;;;;;;6.43;4.28;;;;;;;;;;5131011;27;20047;-75
2023/12/25 13:34:08;;;;;;;11.95;5.80;;;;;;;;;;5137316;27;20043;-73
2023/12/25 13:36:35;;;;;;;10.63;8.20;;;;;;;;;;5138110;27;20091;-69
2023/12/25 13:39:04;;;;;;;8.73;6.43;;;;;;;;;;5112419;27;20058;-70
2023/12/25 13:41:34;;;;;;;6.88;4.65;;;;;;;;;;5112045;28;20124;-73
2023/12/25 13:44:01;;;;;;;5.75;4.13;;;;;;;;;;5119585;28;20051;-75
2023/12/25 13:46:27;;;;;;;6.90;4.85;;;;;;;;;;5117262;28;20047;-74
2023/12/25 13:48:54;;;;;;;5.43;3.63;;;;;;;;;;5118162;28;20044;-71
2023/12/25 13:51:26;;;;;;;4.70;3.38;;;;;;;;;;5115106;28;20079;-71
2023/12/25 13:53:53;;;;;;;5.40;3.38;;;;;;;;;;5116064;28;20054;-71
2023/12/25 13:56:24;;;;;;;5.78;3.53;;;;;;;;;;5119641;28;20055;-73
2023/12/25 13:58:51;;;;;;;4.97;3.40;;;;;;;;;;5113851;28;20184;-72
2023/12/25 14:01:18;;;;;;;6.88;3.40;;;;;;;;;;5111953;28;20059;-69
2023/12/25 14:03:45;;;;;;;4.47;3.20;;;;;;;;;;5111550;28;20052;-81
2023/12/25 14:06:17;;;;;;;4.07;2.83;;;;;;;;;;5125683;27;20046;-77
2023/12/25 14:08:44;;;;;;;4.63;3.10;;;;;;;;;;5131744;27;20075;-83
2023/12/25 14:11:10;;;;;;;7.30;4.07;;;;;;;;;;5143019;27;20057;-79
2023/12/25 14:13:37;;;;;;;7.65;4.35;;;;;;;;;;5131763;27;20047;-75
2023/12/25 14:16:04;;;;;;;8.20;4.57;;;;;;;;;;5138441;27;20724;-74
2023/12/25 14:18:31;;;;;;;6.07;4.00;;;;;;;;;;5131432;27;20670;-77
2023/12/25 14:20:58;;;;;;;5.72;3.53;;;;;;;;;;5114308;27;20619;-77
2023/12/25 14:23:25;;;;;;;5.30;3.53;;;;;;;;;;5139833;27;20095;-77
2023/12/25 14:25:51;;;;;;;7.10;3.55;;;;;;;;;;5134849;27;20072;-78
2023/12/25 14:28:18;;;;;;;4.95;3.63;;;;;;;;;;5115674;27;20039;-77
2023/12/25 14:30:45;;;;;;;7.65;4.45;;;;;;;;;;5128462;27;20065;-77
2023/12/25 14:33:16;;;;;;;7.22;3.63;;;;;;;;;;5124256;27;20074;-74
2023/12/25 14:35:43;;;;;;;6.57;4.00;;;;;;;;;;5122355;27;20043;-79
2023/12/25 14:38:10;;;;;;;4.53;3.10;;;;;;;;;;5141642;27;20051;-74
2023/12/25 14:40:37;;;;;;;5.03;3.28;;;;;;;;;;5142267;27;20043;-79
2023/12/25 14:43:04;;;;;;;7.80;4.05;;;;;;;;;;5141981;27;20118;-78
2023/12/25 14:45:30;;;;;;;5.55;3.67;;;;;;;;;;5127711;27;20040;-78